Terminal Aerodrome Forecast
Issued by NWS Birmingham, AL

Home | Current Version | Previous Version | Text Only | Print | Product List | Glossary On
Versions: 1 2 3 4 5 6 7 8 9 10 11 12 13 14 15 16 17 18 19 20 21 22 23 24 25 26 27 28 29
000
FTUS44 KBMX 271139
TAFBHM
TAF
KBHM 271139Z 2712/2812 17006KT 6SM BR BKN008 OVC014
     FM271400 14005KT P6SM BKN020
     FM271800 13008KT P6SM -SHRA VCTS FEW025 BKN035CB
      TEMPO 2720/2724 2SM TSRA SCT015 BKN025CB
     FM280100 VRB03KT P6SM BKN120=

USA.gov is the U.S. government's official web portal to all federal, state and local government web resources and services.